createdAt,value
2023-04-04T00:02:20.583Z,100.00
2023-04-04T00:05:24.377Z,100.00
2023-04-04T00:08:29.675Z,100.00
2023-04-04T00:11:33.993Z,100.00
2023-04-04T00:14:37.578Z,100.00
2023-04-04T00:17:41.352Z,100.00
2023-04-04T00:20:44.844Z,100.00
2023-04-04T00:23:49.785Z,100.00
2023-04-04T00:26:53.405Z,100.00
2023-04-04T00:29:57.021Z,100.00
2023-04-04T00:33:02.166Z,100.00
2023-04-04T00:36:06.324Z,100.00
2023-04-04T00:39:11.390Z,100.00
2023-04-04T00:42:15.138Z,100.00
2023-04-04T00:45:18.795Z,100.00
2023-04-04T00:48:24.535Z,100.00
2023-04-04T00:51:28.352Z,100.00
2023-04-04T00:54:33.347Z,100.00
2023-04-04T00:57:37.142Z,100.00
2023-04-04T01:00:41.428Z,100.00
2023-04-04T01:03:45.681Z,100.00
2023-04-04T01:06:50.018Z,100.00
2023-04-04T01:09:57.953Z,100.00
2023-04-04T01:13:02.163Z,100.00
2023-04-04T01:16:06.980Z,100.00
2023-04-04T01:19:15.913Z,100.00
2023-04-04T01:22:20.567Z,100.00
2023-04-04T01:25:32.206Z,100.00
2023-04-04T01:28:41.234Z,100.00
2023-04-04T01:31:57.710Z,100.00
2023-04-04T01:35:21.206Z,100.00
2023-04-04T01:38:32.054Z,100.00
2023-04-04T01:41:37.851Z,100.00
2023-04-04T01:44:42.108Z,100.00
2023-04-04T01:47:45.668Z,100.00
2023-04-04T01:50:54.064Z,100.00
2023-04-04T01:53:58.217Z,100.00
2023-04-04T01:57:03.505Z,100.00
2023-04-04T02:00:08.621Z,100.00
2023-04-04T02:03:21.004Z,100.00
2023-04-04T02:06:24.625Z,100.00
2023-04-04T02:09:28.584Z,100.00
2023-04-04T02:12:34.633Z,100.00
2023-04-04T02:15:38.228Z,100.00
2023-04-04T02:18:41.699Z,100.00
2023-04-04T02:21:45.574Z,100.00
2023-04-04T02:24:49.169Z,100.00
2023-04-04T02:27:54.123Z,100.00
2023-04-04T02:30:57.619Z,100.00
2023-04-04T02:34:01.190Z,100.00
2023-04-04T02:37:05.254Z,100.00
2023-04-04T02:40:10.749Z,100.00
2023-04-04T02:43:17.209Z,100.00
2023-04-04T02:46:22.357Z,100.00
2023-04-04T02:49:32.791Z,100.00
2023-04-04T02:52:36.957Z,100.00
2023-04-04T02:55:46.404Z,100.00
2023-04-04T02:58:51.953Z,100.00
2023-04-04T03:01:55.863Z,100.00
2023-04-04T03:05:00.238Z,100.00
2023-04-04T03:08:04.977Z,100.00
2023-04-04T03:11:08.690Z,100.00
2023-04-04T03:14:14.016Z,100.00
2023-04-04T03:17:18.502Z,100.00
2023-04-04T03:20:23.394Z,100.00
2023-04-04T03:23:27.015Z,100.00
2023-04-04T03:26:30.661Z,100.00
2023-04-04T03:29:35.771Z,100.00
2023-04-04T03:32:40.767Z,100.00
2023-04-04T03:35:44.541Z,100.00
2023-04-04T03:38:48.112Z,100.00
2023-04-04T03:41:51.930Z,100.00
2023-04-04T03:44:57.040Z,100.00
2023-04-04T03:48:07.647Z,100.00
2023-04-04T03:51:11.560Z,100.00
2023-04-04T03:54:16.019Z,100.00
2023-04-04T03:57:20.577Z,100.00
2023-04-04T04:00:27.264Z,100.00
2023-04-04T04:03:31.012Z,100.00
2023-04-04T04:06:34.696Z,100.00
2023-04-04T04:09:38.968Z,100.00
2023-04-04T04:12:43.414Z,100.00
2023-04-04T04:15:48.498Z,100.00
2023-04-04T04:18:57.075Z,100.00
2023-04-04T04:22:10.519Z,100.00
2023-04-04T04:25:14.408Z,100.00
2023-04-04T04:28:20.585Z,100.00
2023-04-04T04:31:27.011Z,100.00
2023-04-04T04:34:31.291Z,100.00
2023-04-04T04:37:36.732Z,100.00
2023-04-04T04:40:43.124Z,100.00
2023-04-04T04:43:56.661Z,100.00
2023-04-04T04:47:05.245Z,100.00
2023-04-04T04:50:09.750Z,100.00
2023-04-04T04:53:18.842Z,100.00
2023-04-04T04:56:24.160Z,100.00
2023-04-04T04:59:31.137Z,100.00
2023-04-04T05:02:38.441Z,100.00
2023-04-04T05:05:44.323Z,100.00
2023-04-04T05:08:50.518Z,100.00
2023-04-04T05:12:10.652Z,100.00
2023-04-04T05:15:18.549Z,100.00
2023-04-04T05:18:28.598Z,100.00
2023-04-04T05:21:33.351Z,100.00
2023-04-04T05:24:43.123Z,100.00
2023-04-04T05:27:51.721Z,100.00
2023-04-04T05:30:58.627Z,100.00
2023-04-04T05:34:08.578Z,100.00
2023-04-04T05:37:14.002Z,100.00
2023-04-04T05:40:22.645Z,100.00
2023-04-04T05:43:32.795Z,100.00
2023-04-04T05:46:42.370Z,100.00
2023-04-04T05:49:48.184Z,100.00
2023-04-04T05:52:57.402Z,100.00
2023-04-04T05:56:01.367Z,100.00
2023-04-04T05:59:08.231Z,100.00
2023-04-04T06:02:19.866Z,100.00
2023-04-04T06:05:30.597Z,100.00
2023-04-04T06:08:46.665Z,100.00
2023-04-04T06:11:56.598Z,100.00
2023-04-04T06:15:00.481Z,100.00
2023-04-04T06:18:05.877Z,100.00
2023-04-04T06:21:11.953Z,100.00
2023-04-04T06:24:16.717Z,100.00
2023-04-04T06:27:20.502Z,100.00
2023-04-04T06:30:24.912Z,100.00
2023-04-04T06:33:29.311Z,100.00
2023-04-04T06:36:34.510Z,100.00
2023-04-04T06:39:40.807Z,100.00
2023-04-04T06:42:52.407Z,100.00
2023-04-04T06:45:58.840Z,100.00
2023-04-04T06:49:02.553Z,100.00
2023-04-04T06:52:07.921Z,100.00
2023-04-04T06:55:13.382Z,100.00
2023-04-04T06:58:17.136Z,100.00
2023-04-04T07:01:21.029Z,100.00
2023-04-04T07:04:24.860Z,100.00
2023-04-04T07:07:31.070Z,100.00
2023-04-04T07:10:34.735Z,100.00
2023-04-04T07:13:39.016Z,100.00
2023-04-04T07:16:42.715Z,100.00
2023-04-04T07:19:46.602Z,100.00
2023-04-04T07:22:51.762Z,100.00
2023-04-04T07:25:55.581Z,100.00
2023-04-04T07:28:59.321Z,100.00
2023-04-04T07:32:03.087Z,100.00
2023-04-04T07:35:08.335Z,100.00
2023-04-04T07:38:13.620Z,100.00
2023-04-04T07:41:17.670Z,100.00
2023-04-04T07:44:21.408Z,100.00
2023-04-04T07:47:25.203Z,100.00
2023-04-04T07:50:28.906Z,100.00
2023-04-04T07:53:34.178Z,100.00
2023-04-04T07:56:37.905Z,100.00
2023-04-04T07:59:41.711Z,100.00
2023-04-04T08:02:46.670Z,100.00
2023-04-04T08:05:50.421Z,100.00
2023-04-04T08:08:55.687Z,100.00
2023-04-04T08:11:59.577Z,100.00
2023-04-04T08:15:03.437Z,100.00
2023-04-04T08:18:07.711Z,100.00
2023-04-04T08:21:11.495Z,100.00
2023-04-04T08:24:16.758Z,100.00
2023-04-04T08:27:20.697Z,100.00
2023-04-04T08:30:24.425Z,100.00
2023-04-04T08:33:37.190Z,100.00
2023-04-04T08:36:48.203Z,100.00
2023-04-04T08:39:53.365Z,100.00
2023-04-04T08:42:58.983Z,100.00
2023-04-04T08:46:05.567Z,100.00
2023-04-04T08:49:09.469Z,100.00
2023-04-04T08:52:14.294Z,100.00
2023-04-04T08:55:20.424Z,100.00
2023-04-04T08:58:24.474Z,100.00
2023-04-04T09:01:30.040Z,99.13
2023-04-04T09:04:33.930Z,99.28
2023-04-04T09:07:39.348Z,99.80
2023-04-04T09:10:45.797Z,100.00
2023-04-04T09:13:52.439Z,100.00
2023-04-04T09:16:56.246Z,100.00
2023-04-04T09:20:04.312Z,100.00
2023-04-04T09:23:09.287Z,99.53
2023-04-04T09:26:14.818Z,100.00
2023-04-04T09:29:20.592Z,100.00
2023-04-04T09:32:26.248Z,100.00
2023-04-04T09:35:30.108Z,100.00
2023-04-04T09:38:34.074Z,99.55
2023-04-04T09:41:41.416Z,99.30
2023-04-04T09:44:46.195Z,97.07
2023-04-04T09:47:50.042Z,95.86
2023-04-04T09:50:53.771Z,95.78
2023-04-04T09:54:00.220Z,95.30
2023-04-04T09:57:06.674Z,96.10
2023-04-04T10:00:11.576Z,96.93
2023-04-04T10:03:18.098Z,97.53
2023-04-04T10:06:23.046Z,95.62
2023-04-04T10:09:27.202Z,96.43
2023-04-04T10:12:33.472Z,95.42
2023-04-04T10:15:38.707Z,95.45
2023-04-04T10:18:42.526Z,94.20
2023-04-04T10:21:47.757Z,94.45
2023-04-04T10:24:53.903Z,94.10
2023-04-04T10:27:59.010Z,93.02
2023-04-04T10:31:11.271Z,92.59
2023-04-04T10:34:22.221Z,91.02
2023-04-04T10:37:28.563Z,90.59
2023-04-04T10:40:36.109Z,88.24
2023-04-04T10:43:43.177Z,84.83
2023-04-04T10:46:52.348Z,81.63
2023-04-04T10:49:57.581Z,78.64
2023-04-04T10:53:03.857Z,78.05
2023-04-04T10:56:09.215Z,76.26
2023-04-04T10:59:18.632Z,73.39
2023-04-04T11:02:46.237Z,71.29
2023-04-04T11:05:51.782Z,71.16
2023-04-04T11:08:56.443Z,70.09
2023-04-04T11:12:09.890Z,69.68
2023-04-04T11:15:16.626Z,67.03
2023-04-04T11:21:34.038Z,63.95
2023-04-04T11:24:44.888Z,63.25
2023-04-04T11:27:48.995Z,62.71
2023-04-04T11:31:30.023Z,60.76
2023-04-04T11:34:34.483Z,58.50
2023-04-04T11:37:45.405Z,63.25
2023-04-04T11:40:56.471Z,62.34
2023-04-04T11:44:10.220Z,64.29
2023-04-04T11:47:15.513Z,65.57
2023-04-04T11:50:21.113Z,67.07
2023-04-04T11:53:24.871Z,67.60
2023-04-04T11:56:28.584Z,67.67
2023-04-04T11:59:32.356Z,69.19
2023-04-04T12:02:38.189Z,70.16
2023-04-04T12:05:44.268Z,69.69
2023-04-04T12:08:48.401Z,71.33
2023-04-04T12:11:52.241Z,72.30
2023-04-04T12:15:06.261Z,73.01
2023-04-04T12:18:24.643Z,73.39
2023-04-04T12:21:28.615Z,74.56
2023-04-04T12:24:32.732Z,74.63
2023-04-04T12:27:37.251Z,73.89
2023-04-04T12:30:41.161Z,75.47
2023-04-04T12:33:46.476Z,78.02
2023-04-04T12:36:50.710Z,80.74
2023-04-04T12:39:55.687Z,83.21
2023-04-04T12:43:00.784Z,81.66
2023-04-04T12:46:09.309Z,87.01
2023-04-04T12:49:15.869Z,93.56
2023-04-04T12:52:22.604Z,96.01
2023-04-04T12:55:26.307Z,95.88
2023-04-04T12:58:31.439Z,99.45
2023-04-04T13:01:35.281Z,100.00
2023-04-04T13:04:40.787Z,100.00
2023-04-04T13:07:44.743Z,89.86
2023-04-04T13:10:59.403Z,91.52
2023-04-04T13:14:04.580Z,91.15
2023-04-04T13:17:09.769Z,92.97
2023-04-04T13:20:17.091Z,98.73
2023-04-04T13:23:21.345Z,97.70
2023-04-04T13:26:25.301Z,96.17
2023-04-04T13:29:29.022Z,98.19
2023-04-04T13:32:32.791Z,96.56
2023-04-04T13:35:38.384Z,95.84
2023-04-04T13:38:42.423Z,96.79
2023-04-04T13:41:46.060Z,97.43
2023-04-04T13:44:49.743Z,98.36
2023-04-04T13:47:53.449Z,97.86
2023-04-04T13:50:58.623Z,98.34
2023-04-04T13:54:02.201Z,99.65
2023-04-04T13:57:05.889Z,100.00
2023-04-04T14:00:10.932Z,97.75
2023-04-04T14:03:14.777Z,97.67
2023-04-04T14:06:20.145Z,94.97
2023-04-04T14:09:24.334Z,94.94
2023-04-04T14:12:28.234Z,94.60
2023-04-04T14:15:33.284Z,92.98
2023-04-04T14:18:37.093Z,93.67
2023-04-04T14:21:42.214Z,94.25
2023-04-04T14:24:45.864Z,90.89
2023-04-04T14:27:49.582Z,90.52
2023-04-04T14:30:53.290Z,88.99
2023-04-04T14:33:56.936Z,87.92
2023-04-04T14:37:02.399Z,86.46
2023-04-04T14:40:07.694Z,88.49
2023-04-04T14:43:11.401Z,87.96
2023-04-04T14:46:15.176Z,85.73
2023-04-04T14:49:19.080Z,83.39
2023-04-04T14:52:24.162Z,84.04
2023-04-04T14:55:28.085Z,82.08
2023-04-04T14:58:31.731Z,82.10
2023-04-04T15:01:35.509Z,83.05
2023-04-04T15:04:39.335Z,82.41
2023-04-04T15:07:46.013Z,83.96
2023-04-04T15:10:49.637Z,80.62
2023-04-04T15:13:53.337Z,81.46
2023-04-04T15:16:57.133Z,80.66
2023-04-04T15:20:01.108Z,80.62
2023-04-04T15:23:06.364Z,80.59
2023-04-04T15:26:09.971Z,80.76
2023-04-04T15:29:14.951Z,80.32
2023-04-04T15:32:18.682Z,80.59
2023-04-04T15:35:22.715Z,80.93
2023-04-04T15:38:27.804Z,79.05
2023-04-04T15:41:31.631Z,78.69
2023-04-04T15:44:35.285Z,76.86
2023-04-04T15:47:38.979Z,78.48
2023-04-04T15:50:43.136Z,77.63
2023-04-04T15:53:48.423Z,77.41
2023-04-04T15:56:52.160Z,76.40
2023-04-04T15:59:56.061Z,77.50
2023-04-04T16:03:00.087Z,79.09
2023-04-04T16:06:04.175Z,78.77
2023-04-04T16:09:09.812Z,79.68
2023-04-04T16:12:13.453Z,79.31
2023-04-04T16:15:17.618Z,78.11
2023-04-04T16:18:21.262Z,79.62
2023-04-04T16:21:24.990Z,79.00
2023-04-04T16:24:30.118Z,79.86
2023-04-04T16:27:34.338Z,80.95
2023-04-04T16:30:38.755Z,82.49
2023-04-04T16:33:43.019Z,82.76
2023-04-04T16:36:46.761Z,84.83
2023-04-04T16:39:52.390Z,85.26
2023-04-04T16:42:56.034Z,85.98
2023-04-04T16:45:59.853Z,86.38
2023-04-04T16:49:03.567Z,87.96
2023-04-04T16:52:07.733Z,87.40
2023-04-04T16:55:12.922Z,86.22
2023-04-04T16:58:16.601Z,89.82
2023-04-04T17:01:23.088Z,87.14
2023-04-04T17:04:27.121Z,87.08
2023-04-04T17:07:31.078Z,85.54
2023-04-04T17:10:40.685Z,85.80
2023-04-04T17:13:44.574Z,84.18
2023-04-04T17:16:48.310Z,85.00
2023-04-04T17:19:52.277Z,85.81
2023-04-04T17:22:55.980Z,84.29
2023-04-04T17:26:01.180Z,85.11
2023-04-04T17:29:04.882Z,85.66
2023-04-04T17:32:08.694Z,84.38
2023-04-04T17:35:12.458Z,83.10
2023-04-04T17:38:16.220Z,83.55
2023-04-04T17:41:21.550Z,81.36
2023-04-04T17:44:25.251Z,81.97
2023-04-04T17:47:28.993Z,80.95
2023-04-04T17:50:32.852Z,80.15
2023-04-04T17:53:36.775Z,80.46
2023-04-04T17:56:43.845Z,79.46
2023-04-04T17:59:47.691Z,78.19
2023-04-04T18:02:51.607Z,78.70
2023-04-04T18:05:55.501Z,76.99
2023-04-04T18:08:59.308Z,77.88
2023-04-04T18:12:04.636Z,77.64
2023-04-04T18:15:09.646Z,76.88
2023-04-04T18:18:13.484Z,78.05
2023-04-04T18:21:17.347Z,77.94
2023-04-04T18:24:21.405Z,78.15
2023-04-04T18:27:26.534Z,78.79
2023-04-04T18:30:30.492Z,76.05
2023-04-04T18:33:35.298Z,74.79
2023-04-04T18:36:40.013Z,74.40
2023-04-04T18:39:43.782Z,74.38
2023-04-04T18:42:49.607Z,74.77
2023-04-04T18:45:55.128Z,75.05
2023-04-04T18:48:59.069Z,75.17
2023-04-04T18:52:02.851Z,75.23
2023-04-04T18:55:07.607Z,74.22
2023-04-04T18:58:12.758Z,75.47
2023-04-04T19:01:17.085Z,73.75
2023-04-04T19:04:22.363Z,74.37
2023-04-04T19:07:28.055Z,73.95
2023-04-04T19:10:32.084Z,74.26
2023-04-04T19:13:37.272Z,73.27
2023-04-04T19:16:41.518Z,72.90
2023-04-04T19:19:45.223Z,73.30
2023-04-04T19:22:48.915Z,73.22
2023-04-04T19:25:52.720Z,71.99
2023-04-04T19:28:57.764Z,72.54
2023-04-04T19:32:03.862Z,72.06
2023-04-04T19:35:24.320Z,72.91
2023-04-04T19:38:29.605Z,72.06
2023-04-04T19:41:36.333Z,71.85
2023-04-04T19:44:42.658Z,71.51
2023-04-04T19:47:46.392Z,71.33
2023-04-04T19:50:50.152Z,71.69
2023-04-04T19:53:56.263Z,71.31
2023-04-04T19:57:03.834Z,70.87
2023-04-04T20:00:14.138Z,71.04
2023-04-04T20:03:30.620Z,71.19
2023-04-04T20:06:34.382Z,71.80
2023-04-04T20:09:40.288Z,70.82
2023-04-04T20:12:44.091Z,70.59
2023-04-04T20:16:04.005Z,70.26
2023-04-04T20:19:08.454Z,70.18
2023-04-04T20:22:12.340Z,70.74
2023-04-04T20:25:41.646Z,69.83
2023-04-04T20:28:47.484Z,69.30
2023-04-04T20:31:54.973Z,69.33
2023-04-04T20:34:58.846Z,69.24
2023-04-04T20:38:02.530Z,68.43
2023-04-04T20:41:15.434Z,68.90
2023-04-04T20:44:21.006Z,68.55
2023-04-04T20:47:43.591Z,68.26
2023-04-04T20:50:47.680Z,68.50
2023-04-04T20:53:51.508Z,68.98
2023-04-04T20:56:56.764Z,68.77
2023-04-04T21:00:00.623Z,68.09
2023-04-04T21:03:12.317Z,67.62
2023-04-04T21:06:17.025Z,67.23
2023-04-04T21:09:20.988Z,67.42
2023-04-04T21:12:24.625Z,66.65
2023-04-04T21:15:30.040Z,66.53
2023-04-04T21:18:35.414Z,66.36
2023-04-04T21:21:39.186Z,65.83
2023-04-04T21:24:42.788Z,67.08
2023-04-04T21:27:53.792Z,67.36
2023-04-04T21:30:57.871Z,67.43
2023-04-04T21:34:09.429Z,67.70
2023-04-04T21:37:15.509Z,66.22
2023-04-04T21:40:20.187Z,67.29
2023-04-04T21:43:23.910Z,66.61
2023-04-04T21:46:29.055Z,67.58
2023-04-04T21:49:34.490Z,66.62
2023-04-04T21:52:38.181Z,65.75
2023-04-04T21:55:41.915Z,66.68
2023-04-04T21:58:45.707Z,66.35
2023-04-04T22:01:49.546Z,67.00
2023-04-04T22:04:54.793Z,66.92
2023-04-04T22:07:58.828Z,67.04
2023-04-04T22:11:03.386Z,67.37
2023-04-04T22:14:07.654Z,67.25
2023-04-04T22:17:23.928Z,67.38
2023-04-04T22:20:29.638Z,66.97
2023-04-04T22:23:35.884Z,67.16
2023-04-04T22:26:42.027Z,66.90
2023-04-04T22:29:45.888Z,66.61
2023-04-04T22:32:49.630Z,66.92
2023-04-04T22:35:54.874Z,67.33
2023-04-04T22:38:58.693Z,67.10
2023-04-04T22:42:02.532Z,67.74
2023-04-04T22:45:07.036Z,66.41
2023-04-04T22:48:10.711Z,67.04
2023-04-04T22:51:16.653Z,67.02
2023-04-04T22:54:21.051Z,67.11
2023-04-04T22:57:24.824Z,67.09
2023-04-04T23:00:28.508Z,66.80
2023-04-04T23:03:32.553Z,67.20
2023-04-04T23:06:38.763Z,67.11
2023-04-04T23:09:42.553Z,67.61
2023-04-04T23:12:47.919Z,67.60
2023-04-04T23:15:51.677Z,67.01
2023-04-04T23:18:55.326Z,66.66
2023-04-04T23:22:01.044Z,67.03
2023-04-04T23:25:05.047Z,66.92
2023-04-04T23:28:08.732Z,67.63
2023-04-04T23:31:12.488Z,67.85
2023-04-04T23:34:16.306Z,67.19
2023-04-04T23:37:22.434Z,67.43
2023-04-04T23:40:26.055Z,67.29
2023-04-04T23:43:29.903Z,67.00
2023-04-04T23:46:35.487Z,67.03
2023-04-04T23:49:39.303Z,67.36
2023-04-04T23:52:44.309Z,67.95
2023-04-04T23:55:48.309Z,67.71
2023-04-04T23:58:51.996Z,67.87
